sensor_id;sensor_type;location;lat;lon;timestamp;pressure;altitude;pressure_sealevel;temperature;humidity
70930;BME280;58588;48.102;19.682;2023-04-07T00:02:18;99158.94;;;3.20;100.00
70930;BME280;58588;48.102;19.682;2023-04-07T00:05:21;99162.88;;;3.16;100.00
70930;BME280;58588;48.102;19.682;2023-04-07T00:08:23;99156.88;;;3.14;100.00
70930;BME280;58588;48.102;19.682;2023-04-07T00:11:26;99153.38;;;3.14;100.00
70930;BME280;58588;48.102;19.682;2023-04-07T00:14:28;99159.69;;;3.13;100.00
70930;BME280;58588;48.102;19.682;2023-04-07T00:17:30;99147.31;;;3.12;100.00
70930;BME280;58588;48.102;19.682;2023-04-07T00:20:33;99153.47;;;3.22;100.00
70930;BME280;58588;48.102;19.682;2023-04-07T00:23:35;99155.28;;;3.21;100.00
70930;BME280;58588;48.102;19.682;2023-04-07T00:26:37;99156.84;;;3.24;100.00
70930;BME280;58588;48.102;19.682;2023-04-07T00:29:40;99153.53;;;3.03;100.00
70930;BME280;58588;48.102;19.682;2023-04-07T00:32:43;99157.88;;;3.04;100.00
70930;BME280;58588;48.102;19.682;2023-04-07T00:35:46;99145.81;;;3.09;100.00
70930;BME280;58588;48.102;19.682;2023-04-07T00:38:48;99151.44;;;3.06;100.00
70930;BME280;58588;48.102;19.682;2023-04-07T00:41:50;99147.06;;;3.05;100.00
70930;BME280;58588;48.102;19.682;2023-04-07T00:44:52;99142.47;;;3.07;100.00
70930;BME280;58588;48.102;19.682;2023-04-07T00:47:55;99131.41;;;3.02;100.00
70930;BME280;58588;48.102;19.682;2023-04-07T00:50:59;99131.66;;;3.09;100.00
70930;BME280;58588;48.102;19.682;2023-04-07T00:54:01;99120.69;;;3.12;100.00
70930;BME280;58588;48.102;19.682;2023-04-07T00:57:03;99125.91;;;3.13;100.00
70930;BME280;58588;48.102;19.682;2023-04-07T01:00:06;99120.00;;;3.10;100.00
70930;BME280;58588;48.102;19.682;2023-04-07T01:03:15;99128.25;;;3.16;100.00
70930;BME280;58588;48.102;19.682;2023-04-07T01:06:23;99125.91;;;3.13;100.00
70930;BME280;58588;48.102;19.682;2023-04-07T01:09:31;99118.31;;;3.18;100.00
70930;BME280;58588;48.102;19.682;2023-04-07T01:12:42;99117.91;;;3.13;100.00
70930;BME280;58588;48.102;19.682;2023-04-07T01:15:47;99120.56;;;3.13;100.00
70930;BME280;58588;48.102;19.682;2023-04-07T01:18:53;99118.53;;;2.98;100.00
70930;BME280;58588;48.102;19.682;2023-04-07T01:21:59;99123.25;;;3.13;100.00
70930;BME280;58588;48.102;19.682;2023-04-07T01:32:21;99108.28;;;3.03;100.00
70930;BME280;58588;48.102;19.682;2023-04-07T01:35:29;99115.19;;;2.95;100.00
70930;BME280;58588;48.102;19.682;2023-04-07T01:38:33;99113.38;;;2.96;100.00
70930;BME280;58588;48.102;19.682;2023-04-07T01:41:36;99117.84;;;2.95;100.00
70930;BME280;58588;48.102;19.682;2023-04-07T01:44:39;99117.75;;;3.15;100.00
70930;BME280;58588;48.102;19.682;2023-04-07T01:47:43;99105.94;;;3.17;100.00
70930;BME280;58588;48.102;19.682;2023-04-07T01:50:46;99098.91;;;2.99;100.00
70930;BME280;58588;48.102;19.682;2023-04-07T01:53:48;99104.28;;;3.16;100.00
70930;BME280;58588;48.102;19.682;2023-04-07T01:56:51;99110.69;;;3.23;100.00
70930;BME280;58588;48.102;19.682;2023-04-07T01:59:53;99106.59;;;3.29;100.00
70930;BME280;58588;48.102;19.682;2023-04-07T02:03:13;99116.16;;;3.22;100.00
70930;BME280;58588;48.102;19.682;2023-04-07T02:06:26;99112.44;;;3.15;100.00
70930;BME280;58588;48.102;19.682;2023-04-07T02:09:32;99113.56;;;3.12;100.00
70930;BME280;58588;48.102;19.682;2023-04-07T02:12:36;99104.03;;;3.10;100.00
70930;BME280;58588;48.102;19.682;2023-04-07T02:15:39;99111.19;;;3.09;100.00
70930;BME280;58588;48.102;19.682;2023-04-07T02:18:45;99108.84;;;3.06;100.00
70930;BME280;58588;48.102;19.682;2023-04-07T02:21:50;99100.53;;;3.09;100.00
70930;BME280;58588;48.102;19.682;2023-04-07T02:24:53;99107.03;;;2.97;100.00
70930;BME280;58588;48.102;19.682;2023-04-07T02:27:56;99109.31;;;2.92;100.00
70930;BME280;58588;48.102;19.682;2023-04-07T02:30:58;99101.56;;;2.99;100.00
70930;BME280;58588;48.102;19.682;2023-04-07T02:34:02;99098.88;;;3.08;100.00
70930;BME280;58588;48.102;19.682;2023-04-07T02:37:04;99102.28;;;3.01;100.00
70930;BME280;58588;48.102;19.682;2023-04-07T02:40:07;99106.53;;;3.11;100.00
70930;BME280;58588;48.102;19.682;2023-04-07T02:43:09;99101.38;;;3.10;100.00
70930;BME280;58588;48.102;19.682;2023-04-07T02:46:11;99107.94;;;3.15;100.00
70930;BME280;58588;48.102;19.682;2023-04-07T02:49:14;99110.44;;;3.17;100.00
70930;BME280;58588;48.102;19.682;2023-04-07T02:52:16;99107.84;;;3.07;100.00
70930;BME280;58588;48.102;19.682;2023-04-07T02:55:19;99113.13;;;2.89;100.00
70930;BME280;58588;48.102;19.682;2023-04-07T02:58:21;99105.97;;;2.90;100.00
70930;BME280;58588;48.102;19.682;2023-04-07T03:01:23;99110.97;;;2.93;100.00
70930;BME280;58588;48.102;19.682;2023-04-07T03:04:26;99115.88;;;2.98;100.00
70930;BME280;58588;48.102;19.682;2023-04-07T03:07:29;99121.34;;;2.96;100.00
70930;BME280;58588;48.102;19.682;2023-04-07T03:10:31;99123.59;;;2.91;100.00
70930;BME280;58588;48.102;19.682;2023-04-07T03:13:33;99115.66;;;2.81;100.00
70930;BME280;58588;48.102;19.682;2023-04-07T03:16:35;99108.06;;;2.86;100.00
70930;BME280;58588;48.102;19.682;2023-04-07T03:19:39;99106.00;;;2.80;100.00
70930;BME280;58588;48.102;19.682;2023-04-07T03:22:41;99110.19;;;2.83;100.00
70930;BME280;58588;48.102;19.682;2023-04-07T03:25:44;99120.31;;;2.69;100.00
70930;BME280;58588;48.102;19.682;2023-04-07T03:28:46;99124.66;;;2.71;100.00
70930;BME280;58588;48.102;19.682;2023-04-07T03:31:48;99123.63;;;2.81;100.00
70930;BME280;58588;48.102;19.682;2023-04-07T03:34:51;99120.44;;;2.78;100.00
70930;BME280;58588;48.102;19.682;2023-04-07T03:37:53;99126.28;;;2.81;100.00
70930;BME280;58588;48.102;19.682;2023-04-07T03:40:55;99127.44;;;2.79;100.00
70930;BME280;58588;48.102;19.682;2023-04-07T03:43:57;99127.88;;;2.74;100.00
70930;BME280;58588;48.102;19.682;2023-04-07T03:46:59;99131.25;;;2.76;100.00
70930;BME280;58588;48.102;19.682;2023-04-07T03:50:04;99134.16;;;2.83;100.00
70930;BME280;58588;48.102;19.682;2023-04-07T03:53:06;99140.72;;;2.88;100.00
70930;BME280;58588;48.102;19.682;2023-04-07T03:56:08;99139.59;;;2.91;100.00
70930;BME280;58588;48.102;19.682;2023-04-07T03:59:11;99144.06;;;2.90;100.00
70930;BME280;58588;48.102;19.682;2023-04-07T04:02:13;99144.41;;;2.78;100.00
70930;BME280;58588;48.102;19.682;2023-04-07T04:05:17;99142.41;;;2.80;100.00
70930;BME280;58588;48.102;19.682;2023-04-07T04:08:19;99148.03;;;2.77;100.00
70930;BME280;58588;48.102;19.682;2023-04-07T04:11:21;99151.66;;;2.76;100.00
70930;BME280;58588;48.102;19.682;2023-04-07T04:14:23;99160.38;;;2.78;100.00
70930;BME280;58588;48.102;19.682;2023-04-07T04:17:25;99169.44;;;2.85;100.00
70930;BME280;58588;48.102;19.682;2023-04-07T04:20:29;99163.88;;;2.78;100.00
70930;BME280;58588;48.102;19.682;2023-04-07T04:23:31;99168.88;;;2.81;100.00
70930;BME280;58588;48.102;19.682;2023-04-07T04:26:33;99169.03;;;2.80;100.00
70930;BME280;58588;48.102;19.682;2023-04-07T04:29:35;99168.03;;;2.81;100.00
70930;BME280;58588;48.102;19.682;2023-04-07T04:32:37;99173.38;;;2.81;100.00
70930;BME280;58588;48.102;19.682;2023-04-07T04:35:40;99187.25;;;2.75;100.00
70930;BME280;58588;48.102;19.682;2023-04-07T04:38:42;99176.03;;;2.81;100.00
70930;BME280;58588;48.102;19.682;2023-04-07T04:41:44;99179.66;;;2.89;100.00
70930;BME280;58588;48.102;19.682;2023-04-07T04:44:46;99187.66;;;2.89;100.00
70930;BME280;58588;48.102;19.682;2023-04-07T04:47:48;99183.56;;;2.95;100.00
70930;BME280;58588;48.102;19.682;2023-04-07T04:50:52;99200.81;;;2.91;100.00
70930;BME280;58588;48.102;19.682;2023-04-07T04:53:54;99198.16;;;2.81;100.00
70930;BME280;58588;48.102;19.682;2023-04-07T04:56:56;99194.81;;;2.69;100.00
70930;BME280;58588;48.102;19.682;2023-04-07T04:59:58;99196.91;;;2.76;100.00
70930;BME280;58588;48.102;19.682;2023-04-07T05:03:00;99195.53;;;2.72;100.00
70930;BME280;58588;48.102;19.682;2023-04-07T05:06:04;99201.53;;;2.74;100.00
70930;BME280;58588;48.102;19.682;2023-04-07T05:09:06;99202.81;;;2.69;100.00
70930;BME280;58588;48.102;19.682;2023-04-07T05:12:08;99203.22;;;2.75;100.00
70930;BME280;58588;48.102;19.682;2023-04-07T05:15:11;99204.94;;;2.66;100.00
70930;BME280;58588;48.102;19.682;2023-04-07T05:18:16;99203.25;;;2.65;100.00
70930;BME280;58588;48.102;19.682;2023-04-07T05:21:19;99200.88;;;2.62;100.00
70930;BME280;58588;48.102;19.682;2023-04-07T05:24:21;99201.53;;;2.74;100.00
70930;BME280;58588;48.102;19.682;2023-04-07T05:27:25;99215.00;;;2.72;100.00
70930;BME280;58588;48.102;19.682;2023-04-07T05:30:27;99213.88;;;2.75;100.00
70930;BME280;58588;48.102;19.682;2023-04-07T05:33:29;99216.41;;;2.76;100.00
70930;BME280;58588;48.102;19.682;2023-04-07T05:36:34;99219.44;;;2.81;100.00
70930;BME280;58588;48.102;19.682;2023-04-07T05:39:38;99221.44;;;2.79;100.00
70930;BME280;58588;48.102;19.682;2023-04-07T05:42:40;99233.75;;;2.80;100.00
70930;BME280;58588;48.102;19.682;2023-04-07T05:45:42;99229.56;;;2.78;100.00
70930;BME280;58588;48.102;19.682;2023-04-07T05:48:44;99236.41;;;2.90;100.00
70930;BME280;58588;48.102;19.682;2023-04-07T05:51:48;99234.44;;;2.92;100.00
70930;BME280;58588;48.102;19.682;2023-04-07T05:54:50;99242.00;;;2.97;100.00
70930;BME280;58588;48.102;19.682;2023-04-07T05:57:52;99241.41;;;3.03;100.00
70930;BME280;58588;48.102;19.682;2023-04-07T06:00:54;99242.50;;;3.10;100.00
70930;BME280;58588;48.102;19.682;2023-04-07T06:03:56;99240.25;;;3.15;100.00
70930;BME280;58588;48.102;19.682;2023-04-07T06:07:00;99240.16;;;3.07;100.00
70930;BME280;58588;48.102;19.682;2023-04-07T06:10:03;99246.06;;;3.01;100.00
70930;BME280;58588;48.102;19.682;2023-04-07T06:13:05;99243.25;;;3.02;100.00
70930;BME280;58588;48.102;19.682;2023-04-07T06:16:07;99252.50;;;2.98;100.00
70930;BME280;58588;48.102;19.682;2023-04-07T06:19:09;99254.72;;;3.03;100.00
70930;BME280;58588;48.102;19.682;2023-04-07T06:22:13;99248.72;;;3.01;100.00
70930;BME280;58588;48.102;19.682;2023-04-07T06:25:15;99253.06;;;3.02;100.00
70930;BME280;58588;48.102;19.682;2023-04-07T06:28:17;99245.66;;;2.86;100.00
70930;BME280;58588;48.102;19.682;2023-04-07T06:31:19;99252.91;;;2.93;100.00
70930;BME280;58588;48.102;19.682;2023-04-07T06:34:21;99247.16;;;2.98;100.00
70930;BME280;58588;48.102;19.682;2023-04-07T06:37:25;99247.88;;;3.00;100.00
70930;BME280;58588;48.102;19.682;2023-04-07T06:40:27;99250.81;;;2.97;100.00
70930;BME280;58588;48.102;19.682;2023-04-07T06:43:29;99259.91;;;3.14;100.00
70930;BME280;58588;48.102;19.682;2023-04-07T06:46:31;99254.50;;;3.23;100.00
70930;BME280;58588;48.102;19.682;2023-04-07T06:49:33;99254.34;;;3.35;100.00
70930;BME280;58588;48.102;19.682;2023-04-07T06:52:37;99256.72;;;3.38;100.00
70930;BME280;58588;48.102;19.682;2023-04-07T06:55:39;99257.91;;;3.26;100.00
70930;BME280;58588;48.102;19.682;2023-04-07T06:58:41;99268.28;;;3.56;100.00
70930;BME280;58588;48.102;19.682;2023-04-07T07:01:43;99256.25;;;3.52;100.00
70930;BME280;58588;48.102;19.682;2023-04-07T07:04:45;99264.09;;;3.54;100.00
70930;BME280;58588;48.102;19.682;2023-04-07T07:07:49;99269.81;;;3.59;100.00
70930;BME280;58588;48.102;19.682;2023-04-07T07:10:51;99268.28;;;3.84;100.00
70930;BME280;58588;48.102;19.682;2023-04-07T07:13:54;99274.31;;;3.58;100.00
70930;BME280;58588;48.102;19.682;2023-04-07T07:16:56;99281.94;;;3.81;100.00
70930;BME280;58588;48.102;19.682;2023-04-07T07:19:58;99280.31;;;3.97;100.00
70930;BME280;58588;48.102;19.682;2023-04-07T07:23:01;99282.13;;;3.97;100.00
70930;BME280;58588;48.102;19.682;2023-04-07T07:26:03;99287.59;;;3.95;100.00
70930;BME280;58588;48.102;19.682;2023-04-07T07:29:05;99287.47;;;3.97;100.00
70930;BME280;58588;48.102;19.682;2023-04-07T07:32:08;99287.38;;;4.07;100.00
70930;BME280;58588;48.102;19.682;2023-04-07T07:35:10;99287.63;;;4.13;100.00
70930;BME280;58588;48.102;19.682;2023-04-07T07:38:13;99293.53;;;3.89;100.00
70930;BME280;58588;48.102;19.682;2023-04-07T07:41:15;99298.97;;;3.97;100.00
70930;BME280;58588;48.102;19.682;2023-04-07T07:44:17;99303.91;;;4.20;100.00
70930;BME280;58588;48.102;19.682;2023-04-07T07:47:21;99297.41;;;4.22;100.00
70930;BME280;58588;48.102;19.682;2023-04-07T07:50:23;99296.47;;;4.14;100.00
70930;BME280;58588;48.102;19.682;2023-04-07T07:53:26;99297.50;;;4.30;100.00
70930;BME280;58588;48.102;19.682;2023-04-07T07:56:28;99297.38;;;4.32;100.00
70930;BME280;58588;48.102;19.682;2023-04-07T07:59:30;99305.22;;;4.34;100.00
70930;BME280;58588;48.102;19.682;2023-04-07T08:02:32;99307.66;;;4.45;100.00
70930;BME280;58588;48.102;19.682;2023-04-07T08:05:35;99302.47;;;4.61;100.00
70930;BME280;58588;48.102;19.682;2023-04-07T08:08:39;99308.97;;;4.76;100.00
70930;BME280;58588;48.102;19.682;2023-04-07T08:11:41;99301.53;;;4.88;100.00
70930;BME280;58588;48.102;19.682;2023-04-07T08:14:43;99311.63;;;4.94;100.00
70930;BME280;58588;48.102;19.682;2023-04-07T08:17:45;99308.88;;;5.04;100.00
70930;BME280;58588;48.102;19.682;2023-04-07T08:20:47;99308.97;;;5.20;100.00
70930;BME280;58588;48.102;19.682;2023-04-07T08:23:52;99316.25;;;5.10;100.00
70930;BME280;58588;48.102;19.682;2023-04-07T08:26:54;99313.50;;;5.02;100.00
70930;BME280;58588;48.102;19.682;2023-04-07T08:30:00;99314.81;;;4.98;100.00
70930;BME280;58588;48.102;19.682;2023-04-07T08:33:04;99316.97;;;4.94;100.00
70930;BME280;58588;48.102;19.682;2023-04-07T08:36:06;99317.31;;;5.17;100.00
70930;BME280;58588;48.102;19.682;2023-04-07T08:39:09;99320.22;;;5.06;100.00
70930;BME280;58588;48.102;19.682;2023-04-07T08:42:12;99323.53;;;5.26;100.00
70930;BME280;58588;48.102;19.682;2023-04-07T08:45:16;99322.44;;;5.36;100.00
70930;BME280;58588;48.102;19.682;2023-04-07T08:48:22;99325.06;;;5.54;100.00
70930;BME280;58588;48.102;19.682;2023-04-07T08:51:27;99318.25;;;5.60;100.00
70930;BME280;58588;48.102;19.682;2023-04-07T08:54:31;99324.19;;;5.80;100.00
70930;BME280;58588;48.102;19.682;2023-04-07T08:57:33;99317.75;;;5.90;100.00
70930;BME280;58588;48.102;19.682;2023-04-07T09:00:35;99316.22;;;5.88;100.00
70930;BME280;58588;48.102;19.682;2023-04-07T09:03:38;99329.59;;;5.88;100.00
70930;BME280;58588;48.102;19.682;2023-04-07T09:06:40;99323.50;;;6.04;100.00
70930;BME280;58588;48.102;19.682;2023-04-07T09:09:44;99325.47;;;5.94;100.00
70930;BME280;58588;48.102;19.682;2023-04-07T09:12:47;99323.50;;;6.04;100.00
70930;BME280;58588;48.102;19.682;2023-04-07T09:15:49;99326.06;;;5.87;100.00
70930;BME280;58588;48.102;19.682;2023-04-07T09:18:52;99323.97;;;5.99;100.00
70930;BME280;58588;48.102;19.682;2023-04-07T09:21:54;99320.88;;;5.86;100.00
70930;BME280;58588;48.102;19.682;2023-04-07T09:25:08;99316.66;;;6.01;100.00
70930;BME280;58588;48.102;19.682;2023-04-07T09:28:10;99307.81;;;6.09;100.00
70930;BME280;58588;48.102;19.682;2023-04-07T09:31:12;99315.66;;;6.02;100.00
70930;BME280;58588;48.102;19.682;2023-04-07T09:34:25;99318.00;;;5.79;100.00
70930;BME280;58588;48.102;19.682;2023-04-07T09:37:27;99319.03;;;5.78;100.00
70930;BME280;58588;48.102;19.682;2023-04-07T09:40:31;99325.88;;;5.81;100.00
70930;BME280;58588;48.102;19.682;2023-04-07T09:43:34;99325.03;;;5.80;100.00
70930;BME280;58588;48.102;19.682;2023-04-07T09:46:47;99334.50;;;5.93;100.00
70930;BME280;58588;48.102;19.682;2023-04-07T09:49:51;99327.91;;;5.87;100.00
70930;BME280;58588;48.102;19.682;2023-04-07T09:52:56;99334.59;;;5.83;100.00
70930;BME280;58588;48.102;19.682;2023-04-07T09:56:00;99333.25;;;5.87;100.00
70930;BME280;58588;48.102;19.682;2023-04-07T09:59:03;99337.69;;;5.96;100.00
70930;BME280;58588;48.102;19.682;2023-04-07T10:02:06;99335.41;;;6.09;100.00
70930;BME280;58588;48.102;19.682;2023-04-07T10:05:09;99339.44;;;6.13;100.00
70930;BME280;58588;48.102;19.682;2023-04-07T10:08:11;99344.97;;;6.12;100.00
70930;BME280;58588;48.102;19.682;2023-04-07T10:11:15;99335.28;;;6.19;100.00
70930;BME280;58588;48.102;19.682;2023-04-07T10:14:18;99346.09;;;6.01;100.00
70930;BME280;58588;48.102;19.682;2023-04-07T10:17:21;99348.31;;;6.14;100.00
70930;BME280;58588;48.102;19.682;2023-04-07T10:20:25;99344.59;;;6.07;100.00
70930;BME280;58588;48.102;19.682;2023-04-07T10:23:33;99342.94;;;6.06;100.00
70930;BME280;58588;48.102;19.682;2023-04-07T10:26:42;99346.78;;;6.11;100.00
70930;BME280;58588;48.102;19.682;2023-04-07T10:29:48;99353.63;;;6.06;100.00
70930;BME280;58588;48.102;19.682;2023-04-07T10:32:52;99348.03;;;6.25;100.00
70930;BME280;58588;48.102;19.682;2023-04-07T10:36:05;99352.50;;;6.16;100.00
70930;BME280;58588;48.102;19.682;2023-04-07T10:39:22;99356.56;;;6.29;100.00
70930;BME280;58588;48.102;19.682;2023-04-07T10:42:44;99361.44;;;6.33;100.00
70930;BME280;58588;48.102;19.682;2023-04-07T10:45:54;99350.41;;;6.44;100.00
70930;BME280;58588;48.102;19.682;2023-04-07T10:49:09;99343.22;;;6.53;100.00
70930;BME280;58588;48.102;19.682;2023-04-07T10:52:22;99349.81;;;6.67;100.00
70930;BME280;58588;48.102;19.682;2023-04-07T10:55:33;99349.28;;;6.63;100.00
70930;BME280;58588;48.102;19.682;2023-04-07T10:58:37;99353.53;;;6.90;100.00
70930;BME280;58588;48.102;19.682;2023-04-07T11:01:39;99345.94;;;6.61;100.00
70930;BME280;58588;48.102;19.682;2023-04-07T11:04:42;99351.91;;;6.47;100.00
70930;BME280;58588;48.102;19.682;2023-04-07T11:07:49;99355.78;;;6.44;100.00
70930;BME280;58588;48.102;19.682;2023-04-07T11:10:51;99362.63;;;6.47;100.00
70930;BME280;58588;48.102;19.682;2023-04-07T11:13:55;99364.81;;;6.52;100.00
70930;BME280;58588;48.102;19.682;2023-04-07T11:16:57;99364.81;;;6.43;100.00
70930;BME280;58588;48.102;19.682;2023-04-07T11:20:00;99358.81;;;6.50;100.00
70930;BME280;58588;48.102;19.682;2023-04-07T11:23:03;99355.94;;;6.43;100.00
70930;BME280;58588;48.102;19.682;2023-04-07T11:26:05;99368.44;;;6.34;100.00
70930;BME280;58588;48.102;19.682;2023-04-07T11:29:09;99367.81;;;6.40;100.00
70930;BME280;58588;48.102;19.682;2023-04-07T11:32:13;99368.75;;;6.23;100.00
70930;BME280;58588;48.102;19.682;2023-04-07T11:35:15;99373.13;;;6.24;100.00
70930;BME280;58588;48.102;19.682;2023-04-07T11:38:17;99364.75;;;6.27;100.00
70930;BME280;58588;48.102;19.682;2023-04-07T11:41:20;99369.19;;;6.10;100.00
70930;BME280;58588;48.102;19.682;2023-04-07T11:44:24;99363.44;;;5.97;100.00
70930;BME280;58588;48.102;19.682;2023-04-07T11:47:36;99375.31;;;5.95;100.00
70930;BME280;58588;48.102;19.682;2023-04-07T11:50:39;99374.72;;;6.09;100.00
70930;BME280;58588;48.102;19.682;2023-04-07T11:53:42;99370.91;;;6.20;100.00
70930;BME280;58588;48.102;19.682;2023-04-07T11:56:45;99368.06;;;6.21;100.00
70930;BME280;58588;48.102;19.682;2023-04-07T11:59:49;99366.28;;;6.30;100.00
70930;BME280;58588;48.102;19.682;2023-04-07T12:02:51;99370.09;;;6.27;100.00
70930;BME280;58588;48.102;19.682;2023-04-07T12:05:54;99369.75;;;6.22;100.00
70930;BME280;58588;48.102;19.682;2023-04-07T12:08:56;99372.91;;;6.17;100.00
70930;BME280;58588;48.102;19.682;2023-04-07T12:11:58;99373.63;;;6.28;100.00
70930;BME280;58588;48.102;19.682;2023-04-07T12:15:01;99374.34;;;6.04;100.00
70930;BME280;58588;48.102;19.682;2023-04-07T12:18:04;99369.56;;;6.15;100.00
70930;BME280;58588;48.102;19.682;2023-04-07T12:21:06;99375.78;;;6.24;100.00
70930;BME280;58588;48.102;19.682;2023-04-07T12:24:08;99371.09;;;6.18;100.00
70930;BME280;58588;48.102;19.682;2023-04-07T12:27:10;99371.00;;;6.36;100.00
70930;BME280;58588;48.102;19.682;2023-04-07T12:30:14;99366.13;;;6.31;100.00
70930;BME280;58588;48.102;19.682;2023-04-07T12:33:16;99370.44;;;6.24;100.00
70930;BME280;58588;48.102;19.682;2023-04-07T12:36:18;99368.44;;;6.34;100.00
70930;BME280;58588;48.102;19.682;2023-04-07T12:39:20;99370.75;;;6.21;100.00
70930;BME280;58588;48.102;19.682;2023-04-07T12:42:24;99383.41;;;6.11;100.00
70930;BME280;58588;48.102;19.682;2023-04-07T12:45:28;99376.81;;;6.31;100.00
70930;BME280;58588;48.102;19.682;2023-04-07T12:48:31;99381.00;;;6.34;100.00
70930;BME280;58588;48.102;19.682;2023-04-07T12:51:33;99375.81;;;6.32;100.00
70930;BME280;58588;48.102;19.682;2023-04-07T12:54:35;99383.75;;;6.58;100.00
70930;BME280;58588;48.102;19.682;2023-04-07T12:57:37;99385.22;;;6.44;100.00
70930;BME280;58588;48.102;19.682;2023-04-07T13:00:41;99389.09;;;6.42;100.00
70930;BME280;58588;48.102;19.682;2023-04-07T13:03:43;99390.88;;;6.41;100.00
70930;BME280;58588;48.102;19.682;2023-04-07T13:06:45;99388.81;;;6.19;100.00
70930;BME280;58588;48.102;19.682;2023-04-07T13:09:47;99382.19;;;6.39;100.00
70930;BME280;58588;48.102;19.682;2023-04-07T13:12:49;99378.19;;;6.43;100.00
70930;BME280;58588;48.102;19.682;2023-04-07T13:15:53;99381.25;;;6.57;100.00
70930;BME280;58588;48.102;19.682;2023-04-07T13:18:55;99383.75;;;6.58;100.00
70930;BME280;58588;48.102;19.682;2023-04-07T13:21:57;99382.78;;;6.67;100.00
70930;BME280;58588;48.102;19.682;2023-04-07T13:24:59;99381.59;;;6.62;100.00
70930;BME280;58588;48.102;19.682;2023-04-07T13:28:01;99385.13;;;6.62;100.00
70930;BME280;58588;48.102;19.682;2023-04-07T13:31:05;99385.59;;;6.58;100.00
70930;BME280;58588;48.102;19.682;2023-04-07T13:34:07;99377.38;;;6.51;100.00
70930;BME280;58588;48.102;19.682;2023-04-07T13:37:09;99389.91;;;6.42;100.00
70930;BME280;58588;48.102;19.682;2023-04-07T13:40:12;99398.13;;;6.49;100.00
70930;BME280;58588;48.102;19.682;2023-04-07T13:43:14;99394.56;;;6.40;100.00
70930;BME280;58588;48.102;19.682;2023-04-07T13:46:19;99385.84;;;6.30;100.00
70930;BME280;58588;48.102;19.682;2023-04-07T13:49:21;99392.06;;;6.39;100.00
70930;BME280;58588;48.102;19.682;2023-04-07T13:52:23;99391.22;;;6.30;100.00
70930;BME280;58588;48.102;19.682;2023-04-07T13:55:26;99396.22;;;6.33;100.00
70930;BME280;58588;48.102;19.682;2023-04-07T13:58:28;99389.38;;;6.31;100.00
70930;BME280;58588;48.102;19.682;2023-04-07T14:01:31;99392.41;;;6.36;100.00
70930;BME280;58588;48.102;19.682;2023-04-07T14:04:35;99395.72;;;6.30;100.00
70930;BME280;58588;48.102;19.682;2023-04-07T14:07:37;99394.56;;;6.32;100.00
70930;BME280;58588;48.102;19.682;2023-04-07T14:10:39;99389.03;;;6.34;100.00
70930;BME280;58588;48.102;19.682;2023-04-07T14:13:41;99393.06;;;6.30;100.00
70930;BME280;58588;48.102;19.682;2023-04-07T14:16:45;99391.34;;;6.29;100.00
70930;BME280;58588;48.102;19.682;2023-04-07T14:19:47;99382.97;;;6.24;100.00
70930;BME280;58588;48.102;19.682;2023-04-07T14:22:51;99394.66;;;6.23;100.00
70930;BME280;58588;48.102;19.682;2023-04-07T14:25:54;99399.19;;;6.22;100.00
70930;BME280;58588;48.102;19.682;2023-04-07T14:28:57;99394.03;;;6.29;100.00
70930;BME280;58588;48.102;19.682;2023-04-07T14:32:00;99394.72;;;6.31;100.00
70930;BME280;58588;48.102;19.682;2023-04-07T14:35:02;99397.75;;;6.36;100.00
70930;BME280;58588;48.102;19.682;2023-04-07T14:38:05;99399.56;;;6.35;100.00
70930;BME280;58588;48.102;19.682;2023-04-07T14:41:07;99393.19;;;6.28;100.00
70930;BME280;58588;48.102;19.682;2023-04-07T14:44:09;99406.06;;;6.25;100.00
70930;BME280;58588;48.102;19.682;2023-04-07T14:47:12;99404.38;;;6.24;100.00
70930;BME280;58588;48.102;19.682;2023-04-07T14:50:14;99403.53;;;6.23;100.00
70930;BME280;58588;48.102;19.682;2023-04-07T14:53:16;99410.78;;;6.31;100.00
70930;BME280;58588;48.102;19.682;2023-04-07T14:56:18;99408.06;;;6.23;100.00
70930;BME280;58588;48.102;19.682;2023-04-07T14:59:22;99404.25;;;6.33;100.00
70930;BME280;58588;48.102;19.682;2023-04-07T15:02:25;99404.09;;;6.35;100.00
70930;BME280;58588;48.102;19.682;2023-04-07T15:05:28;99404.63;;;6.38;100.00
70930;BME280;58588;48.102;19.682;2023-04-07T15:08:30;99406.09;;;6.33;100.00
70930;BME280;58588;48.102;19.682;2023-04-07T15:11:32;99409.94;;;6.30;100.00
70930;BME280;58588;48.102;19.682;2023-04-07T15:14:34;99403.59;;;6.31;100.00
70930;BME280;58588;48.102;19.682;2023-04-07T15:17:37;99412.09;;;6.27;100.00
70930;BME280;58588;48.102;19.682;2023-04-07T15:20:40;99408.94;;;6.31;100.00
70930;BME280;58588;48.102;19.682;2023-04-07T15:23:42;99406.44;;;6.30;100.00
70930;BME280;58588;48.102;19.682;2023-04-07T15:26:44;99413.28;;;6.32;100.00
70930;BME280;58588;48.102;19.682;2023-04-07T15:29:46;99405.75;;;6.28;100.00
70930;BME280;58588;48.102;19.682;2023-04-07T15:33:02;99404.72;;;6.29;100.00
70930;BME280;58588;48.102;19.682;2023-04-07T15:36:05;99402.22;;;6.27;100.00
70930;BME280;58588;48.102;19.682;2023-04-07T15:39:07;99419.94;;;6.20;100.00
70930;BME280;58588;48.102;19.682;2023-04-07T15:42:09;99417.09;;;6.22;100.00
70930;BME280;58588;48.102;19.682;2023-04-07T15:45:12;99416.50;;;6.02;100.00
70930;BME280;58588;48.102;19.682;2023-04-07T15:48:15;99417.28;;;5.94;100.00
70930;BME280;58588;48.102;19.682;2023-04-07T15:51:18;99420.53;;;6.06;100.00
70930;BME280;58588;48.102;19.682;2023-04-07T15:54:20;99424.50;;;6.02;100.00
70930;BME280;58588;48.102;19.682;2023-04-07T15:57:22;99423.22;;;6.06;100.00
70930;BME280;58588;48.102;19.682;2023-04-07T16:00:26;99422.94;;;5.91;100.00
70930;BME280;58588;48.102;19.682;2023-04-07T16:03:30;99430.03;;;6.00;100.00
70930;BME280;58588;48.102;19.682;2023-04-07T16:06:32;99433.34;;;5.94;100.00